sensor_id;sensor_type;location;lat;lon;timestamp;P1;durP1;ratioP1;P2;durP2;ratioP2
55222;SDS011;41090;48.632;12.428;2023-07-24T00:00:25;10.87;;;7.43;;
55222;SDS011;41090;48.632;12.428;2023-07-24T00:02:51;11.03;;;8.60;;
55222;SDS011;41090;48.632;12.428;2023-07-24T00:05:16;10.57;;;8.40;;
55222;SDS011;41090;48.632;12.428;2023-07-24T00:07:41;11.97;;;8.50;;
55222;SDS011;41090;48.632;12.428;2023-07-24T00:10:06;9.87;;;8.47;;
55222;SDS011;41090;48.632;12.428;2023-07-24T00:12:32;10.30;;;8.20;;
55222;SDS011;41090;48.632;12.428;2023-07-24T00:14:57;12.57;;;8.47;;
55222;SDS011;41090;48.632;12.428;2023-07-24T00:17:22;9.27;;;7.47;;
55222;SDS011;41090;48.632;12.428;2023-07-24T00:19:48;11.83;;;8.83;;
55222;SDS011;41090;48.632;12.428;2023-07-24T00:22:13;10.47;;;8.43;;
55222;SDS011;41090;48.632;12.428;2023-07-24T00:24:38;11.27;;;8.80;;
55222;SDS011;41090;48.632;12.428;2023-07-24T00:27:03;11.37;;;9.20;;
55222;SDS011;41090;48.632;12.428;2023-07-24T00:29:29;14.47;;;8.60;;
55222;SDS011;41090;48.632;12.428;2023-07-24T00:31:54;12.73;;;8.90;;
55222;SDS011;41090;48.632;12.428;2023-07-24T00:34:19;11.07;;;8.80;;
55222;SDS011;41090;48.632;12.428;2023-07-24T00:36:45;9.07;;;7.80;;
55222;SDS011;41090;48.632;12.428;2023-07-24T00:39:10;11.53;;;8.33;;
55222;SDS011;41090;48.632;12.428;2023-07-24T00:41:35;11.67;;;8.43;;
55222;SDS011;41090;48.632;12.428;2023-07-24T00:44:00;11.27;;;8.60;;
55222;SDS011;41090;48.632;12.428;2023-07-24T00:46:26;8.90;;;7.50;;
55222;SDS011;41090;48.632;12.428;2023-07-24T00:48:51;14.47;;;8.10;;
55222;SDS011;41090;48.632;12.428;2023-07-24T00:51:19;9.60;;;8.03;;
55222;SDS011;41090;48.632;12.428;2023-07-24T00:53:44;10.60;;;8.03;;
55222;SDS011;41090;48.632;12.428;2023-07-24T00:56:09;11.27;;;8.70;;
55222;SDS011;41090;48.632;12.428;2023-07-24T00:58:35;11.47;;;8.53;;
55222;SDS011;41090;48.632;12.428;2023-07-24T01:01:01;11.07;;;7.90;;
55222;SDS011;41090;48.632;12.428;2023-07-24T01:03:31;9.93;;;8.27;;
55222;SDS011;41090;48.632;12.428;2023-07-24T01:05:56;10.00;;;7.87;;
55222;SDS011;41090;48.632;12.428;2023-07-24T01:08:22;11.57;;;8.20;;
55222;SDS011;41090;48.632;12.428;2023-07-24T01:10:47;12.27;;;8.43;;
55222;SDS011;41090;48.632;12.428;2023-07-24T01:13:16;10.37;;;7.97;;
55222;SDS011;41090;48.632;12.428;2023-07-24T01:15:48;10.10;;;8.23;;
55222;SDS011;41090;48.632;12.428;2023-07-24T01:18:15;11.00;;;8.03;;
55222;SDS011;41090;48.632;12.428;2023-07-24T01:20:51;9.40;;;8.33;;
55222;SDS011;41090;48.632;12.428;2023-07-24T01:25:56;10.97;;;8.80;;
55222;SDS011;41090;48.632;12.428;2023-07-24T01:28:22;10.77;;;9.00;;
55222;SDS011;41090;48.632;12.428;2023-07-24T01:30:47;11.90;;;8.80;;
55222;SDS011;41090;48.632;12.428;2023-07-24T01:33:13;10.37;;;8.70;;
55222;SDS011;41090;48.632;12.428;2023-07-24T01:35:39;17.40;;;8.50;;
55222;SDS011;41090;48.632;12.428;2023-07-24T01:38:05;10.60;;;7.87;;
55222;SDS011;41090;48.632;12.428;2023-07-24T01:40:31;12.00;;;9.07;;
55222;SDS011;41090;48.632;12.428;2023-07-24T01:42:56;11.37;;;8.27;;
55222;SDS011;41090;48.632;12.428;2023-07-24T01:45:24;12.97;;;8.90;;
55222;SDS011;41090;48.632;12.428;2023-07-24T01:47:50;9.53;;;8.43;;
55222;SDS011;41090;48.632;12.428;2023-07-24T01:50:15;8.50;;;7.43;;
55222;SDS011;41090;48.632;12.428;2023-07-24T01:52:40;11.03;;;8.30;;
55222;SDS011;41090;48.632;12.428;2023-07-24T01:55:06;9.97;;;8.37;;
55222;SDS011;41090;48.632;12.428;2023-07-24T01:57:31;11.23;;;8.23;;
55222;SDS011;41090;48.632;12.428;2023-07-24T01:59:56;10.53;;;8.20;;
55222;SDS011;41090;48.632;12.428;2023-07-24T02:02:21;12.57;;;9.00;;
55222;SDS011;41090;48.632;12.428;2023-07-24T02:04:47;10.93;;;8.60;;
55222;SDS011;41090;48.632;12.428;2023-07-24T02:07:12;11.63;;;8.33;;
55222;SDS011;41090;48.632;12.428;2023-07-24T02:09:37;12.17;;;8.77;;
55222;SDS011;41090;48.632;12.428;2023-07-24T02:12:03;9.63;;;7.83;;
55222;SDS011;41090;48.632;12.428;2023-07-24T02:14:28;10.87;;;8.10;;
55222;SDS011;41090;48.632;12.428;2023-07-24T02:16:53;9.47;;;7.97;;
55222;SDS011;41090;48.632;12.428;2023-07-24T02:19:19;9.47;;;7.90;;
55222;SDS011;41090;48.632;12.428;2023-07-24T02:21:44;10.77;;;8.83;;
55222;SDS011;41090;48.632;12.428;2023-07-24T02:24:09;11.27;;;8.67;;
55222;SDS011;41090;48.632;12.428;2023-07-24T02:26:34;12.93;;;8.60;;
55222;SDS011;41090;48.632;12.428;2023-07-24T02:28:59;13.73;;;8.60;;
55222;SDS011;41090;48.632;12.428;2023-07-24T02:31:25;11.00;;;8.53;;
55222;SDS011;41090;48.632;12.428;2023-07-24T02:33:50;11.43;;;8.50;;
55222;SDS011;41090;48.632;12.428;2023-07-24T02:36:16;12.03;;;8.37;;
55222;SDS011;41090;48.632;12.428;2023-07-24T02:38:41;12.03;;;8.97;;
55222;SDS011;41090;48.632;12.428;2023-07-24T02:41:06;10.63;;;8.37;;
55222;SDS011;41090;48.632;12.428;2023-07-24T02:43:31;13.03;;;9.17;;
55222;SDS011;41090;48.632;12.428;2023-07-24T02:46:00;11.37;;;8.53;;
55222;SDS011;41090;48.632;12.428;2023-07-24T02:48:26;13.23;;;9.07;;
55222;SDS011;41090;48.632;12.428;2023-07-24T02:50:52;9.13;;;8.10;;
55222;SDS011;41090;48.632;12.428;2023-07-24T02:53:17;12.43;;;8.10;;
55222;SDS011;41090;48.632;12.428;2023-07-24T02:55:43;10.53;;;8.57;;
55222;SDS011;41090;48.632;12.428;2023-07-24T02:58:08;10.63;;;9.43;;
55222;SDS011;41090;48.632;12.428;2023-07-24T03:00:33;11.70;;;8.83;;
55222;SDS011;41090;48.632;12.428;2023-07-24T03:02:59;12.77;;;9.63;;
55222;SDS011;41090;48.632;12.428;2023-07-24T03:05:24;10.03;;;8.90;;
55222;SDS011;41090;48.632;12.428;2023-07-24T03:07:49;11.57;;;8.83;;
55222;SDS011;41090;48.632;12.428;2023-07-24T03:10:15;10.30;;;8.30;;
55222;SDS011;41090;48.632;12.428;2023-07-24T03:12:40;10.80;;;8.27;;
55222;SDS011;41090;48.632;12.428;2023-07-24T03:15:05;9.87;;;8.53;;
55222;SDS011;41090;48.632;12.428;2023-07-24T03:17:31;11.73;;;9.80;;
55222;SDS011;41090;48.632;12.428;2023-07-24T03:19:56;10.87;;;8.77;;
55222;SDS011;41090;48.632;12.428;2023-07-24T03:22:21;10.87;;;9.30;;
55222;SDS011;41090;48.632;12.428;2023-07-24T03:24:47;13.73;;;8.67;;
55222;SDS011;41090;48.632;12.428;2023-07-24T03:27:12;9.30;;;8.30;;
55222;SDS011;41090;48.632;12.428;2023-07-24T03:29:37;12.27;;;9.50;;
55222;SDS011;41090;48.632;12.428;2023-07-24T03:32:04;12.50;;;9.40;;
55222;SDS011;41090;48.632;12.428;2023-07-24T03:34:29;12.33;;;9.20;;
55222;SDS011;41090;48.632;12.428;2023-07-24T03:36:55;11.67;;;9.67;;
55222;SDS011;41090;48.632;12.428;2023-07-24T03:39:20;12.47;;;9.47;;
55222;SDS011;41090;48.632;12.428;2023-07-24T03:41:45;12.03;;;9.03;;
55222;SDS011;41090;48.632;12.428;2023-07-24T03:44:11;12.03;;;8.67;;
55222;SDS011;41090;48.632;12.428;2023-07-24T03:46:36;11.00;;;9.20;;
55222;SDS011;41090;48.632;12.428;2023-07-24T03:49:01;12.43;;;9.47;;
55222;SDS011;41090;48.632;12.428;2023-07-24T03:51:26;12.67;;;10.07;;
55222;SDS011;41090;48.632;12.428;2023-07-24T03:53:52;11.83;;;9.50;;
55222;SDS011;41090;48.632;12.428;2023-07-24T03:56:17;10.67;;;9.17;;
55222;SDS011;41090;48.632;12.428;2023-07-24T03:58:42;15.33;;;9.63;;
55222;SDS011;41090;48.632;12.428;2023-07-24T04:01:08;12.93;;;9.50;;
55222;SDS011;41090;48.632;12.428;2023-07-24T04:03:33;11.43;;;9.37;;
55222;SDS011;41090;48.632;12.428;2023-07-24T04:05:58;11.97;;;9.17;;
55222;SDS011;41090;48.632;12.428;2023-07-24T04:08:24;12.13;;;9.67;;
55222;SDS011;41090;48.632;12.428;2023-07-24T04:10:49;11.77;;;9.40;;
55222;SDS011;41090;48.632;12.428;2023-07-24T04:13:14;12.30;;;9.57;;
55222;SDS011;41090;48.632;12.428;2023-07-24T04:15:39;16.07;;;9.67;;
55222;SDS011;41090;48.632;12.428;2023-07-24T04:18:05;13.07;;;9.10;;
55222;SDS011;41090;48.632;12.428;2023-07-24T04:20:30;10.70;;;8.97;;
55222;SDS011;41090;48.632;12.428;2023-07-24T04:22:55;13.37;;;9.17;;
55222;SDS011;41090;48.632;12.428;2023-07-24T04:25:21;14.87;;;9.50;;
55222;SDS011;41090;48.632;12.428;2023-07-24T04:27:46;13.87;;;9.93;;
55222;SDS011;41090;48.632;12.428;2023-07-24T04:30:11;11.63;;;9.83;;
55222;SDS011;41090;48.632;12.428;2023-07-24T04:32:36;11.93;;;9.63;;
55222;SDS011;41090;48.632;12.428;2023-07-24T04:35:02;12.70;;;9.43;;
55222;SDS011;41090;48.632;12.428;2023-07-24T04:37:27;13.53;;;9.57;;
55222;SDS011;41090;48.632;12.428;2023-07-24T04:39:52;12.23;;;8.93;;
55222;SDS011;41090;48.632;12.428;2023-07-24T04:42:17;11.97;;;9.87;;
55222;SDS011;41090;48.632;12.428;2023-07-24T04:44:43;12.80;;;9.13;;
55222;SDS011;41090;48.632;12.428;2023-07-24T04:47:08;12.50;;;9.77;;
55222;SDS011;41090;48.632;12.428;2023-07-24T04:49:33;13.57;;;9.77;;
55222;SDS011;41090;48.632;12.428;2023-07-24T04:51:59;11.60;;;9.90;;
55222;SDS011;41090;48.632;12.428;2023-07-24T04:54:24;15.47;;;9.70;;
55222;SDS011;41090;48.632;12.428;2023-07-24T04:56:50;11.87;;;10.07;;
55222;SDS011;41090;48.632;12.428;2023-07-24T04:59:15;12.23;;;9.60;;
55222;SDS011;41090;48.632;12.428;2023-07-24T05:01:40;11.40;;;10.20;;
55222;SDS011;41090;48.632;12.428;2023-07-24T05:04:05;12.13;;;8.83;;
55222;SDS011;41090;48.632;12.428;2023-07-24T05:06:31;10.90;;;9.47;;
55222;SDS011;41090;48.632;12.428;2023-07-24T05:08:56;11.37;;;9.80;;
55222;SDS011;41090;48.632;12.428;2023-07-24T05:11:21;12.93;;;9.53;;
55222;SDS011;41090;48.632;12.428;2023-07-24T05:13:46;11.67;;;9.40;;
55222;SDS011;41090;48.632;12.428;2023-07-24T05:16:12;11.90;;;10.60;;
55222;SDS011;41090;48.632;12.428;2023-07-24T05:18:37;13.50;;;10.43;;
55222;SDS011;41090;48.632;12.428;2023-07-24T05:21:02;11.87;;;9.80;;
55222;SDS011;41090;48.632;12.428;2023-07-24T05:23:27;10.07;;;9.07;;
55222;SDS011;41090;48.632;12.428;2023-07-24T05:25:58;12.87;;;10.03;;
55222;SDS011;41090;48.632;12.428;2023-07-24T05:28:25;11.23;;;9.83;;
55222;SDS011;41090;48.632;12.428;2023-07-24T05:30:51;13.13;;;10.63;;
55222;SDS011;41090;48.632;12.428;2023-07-24T05:33:16;14.90;;;10.53;;
55222;SDS011;41090;48.632;12.428;2023-07-24T05:35:41;12.47;;;9.67;;
55222;SDS011;41090;48.632;12.428;2023-07-24T05:38:08;10.33;;;9.23;;
55222;SDS011;41090;48.632;12.428;2023-07-24T05:40:33;13.37;;;11.20;;
55222;SDS011;41090;48.632;12.428;2023-07-24T05:42:58;10.77;;;9.27;;
55222;SDS011;41090;48.632;12.428;2023-07-24T05:45:23;11.30;;;9.70;;
55222;SDS011;41090;48.632;12.428;2023-07-24T05:47:49;13.33;;;10.37;;
55222;SDS011;41090;48.632;12.428;2023-07-24T05:50:14;11.30;;;10.10;;
55222;SDS011;41090;48.632;12.428;2023-07-24T05:52:39;11.57;;;10.37;;
55222;SDS011;41090;48.632;12.428;2023-07-24T05:55:05;11.90;;;10.57;;
55222;SDS011;41090;48.632;12.428;2023-07-24T05:57:30;12.23;;;10.27;;
55222;SDS011;41090;48.632;12.428;2023-07-24T05:59:56;11.90;;;10.47;;
55222;SDS011;41090;48.632;12.428;2023-07-24T06:02:21;11.93;;;9.73;;
55222;SDS011;41090;48.632;12.428;2023-07-24T06:04:46;11.40;;;10.20;;
55222;SDS011;41090;48.632;12.428;2023-07-24T06:07:11;10.47;;;9.37;;
55222;SDS011;41090;48.632;12.428;2023-07-24T06:09:37;12.97;;;10.30;;
55222;SDS011;41090;48.632;12.428;2023-07-24T06:12:02;12.07;;;10.23;;
55222;SDS011;41090;48.632;12.428;2023-07-24T06:14:27;11.93;;;10.33;;
55222;SDS011;41090;48.632;12.428;2023-07-24T06:16:53;12.07;;;9.90;;
55222;SDS011;41090;48.632;12.428;2023-07-24T06:19:18;13.63;;;10.10;;
55222;SDS011;41090;48.632;12.428;2023-07-24T06:21:43;12.77;;;10.20;;
55222;SDS011;41090;48.632;12.428;2023-07-24T06:24:08;12.80;;;10.60;;
55222;SDS011;41090;48.632;12.428;2023-07-24T06:26:37;12.57;;;10.80;;
55222;SDS011;41090;48.632;12.428;2023-07-24T06:29:02;12.73;;;10.87;;
55222;SDS011;41090;48.632;12.428;2023-07-24T06:31:27;11.60;;;10.37;;
55222;SDS011;41090;48.632;12.428;2023-07-24T06:33:52;12.53;;;10.90;;
55222;SDS011;41090;48.632;12.428;2023-07-24T06:36:18;11.90;;;10.53;;
55222;SDS011;41090;48.632;12.428;2023-07-24T06:38:43;11.90;;;10.70;;
55222;SDS011;41090;48.632;12.428;2023-07-24T06:41:09;11.43;;;10.10;;
55222;SDS011;41090;48.632;12.428;2023-07-24T06:43:34;11.38;;;10.23;;
55222;SDS011;41090;48.632;12.428;2023-07-24T06:45:59;11.35;;;10.15;;
55222;SDS011;41090;48.632;12.428;2023-07-24T06:48:24;12.43;;;11.13;;
55222;SDS011;41090;48.632;12.428;2023-07-24T06:50:50;13.68;;;11.48;;
55222;SDS011;41090;48.632;12.428;2023-07-24T06:53:15;12.25;;;10.30;;
55222;SDS011;41090;48.632;12.428;2023-07-24T06:55:41;11.82;;;10.63;;
55222;SDS011;41090;48.632;12.428;2023-07-24T06:58:06;12.35;;;10.82;;
55222;SDS011;41090;48.632;12.428;2023-07-24T07:00:31;11.43;;;10.23;;
55222;SDS011;41090;48.632;12.428;2023-07-24T07:02:56;12.68;;;10.90;;
55222;SDS011;41090;48.632;12.428;2023-07-24T07:05:22;11.95;;;10.32;;
55222;SDS011;41090;48.632;12.428;2023-07-24T07:07:47;11.85;;;10.63;;
55222;SDS011;41090;48.632;12.428;2023-07-24T07:10:12;11.55;;;10.38;;
55222;SDS011;41090;48.632;12.428;2023-07-24T07:12:37;11.95;;;10.68;;
55222;SDS011;41090;48.632;12.428;2023-07-24T07:15:03;11.18;;;10.02;;
55222;SDS011;41090;48.632;12.428;2023-07-24T07:17:28;10.90;;;9.80;;
55222;SDS011;41090;48.632;12.428;2023-07-24T07:19:53;13.13;;;10.38;;
55222;SDS011;41090;48.632;12.428;2023-07-24T07:22:21;12.13;;;10.50;;
55222;SDS011;41090;48.632;12.428;2023-07-24T07:24:46;11.98;;;10.75;;
55222;SDS011;41090;48.632;12.428;2023-07-24T07:27:12;14.77;;;10.32;;
55222;SDS011;41090;48.632;12.428;2023-07-24T07:29:37;11.40;;;10.23;;
55222;SDS011;41090;48.632;12.428;2023-07-24T07:32:02;11.27;;;10.07;;
55222;SDS011;41090;48.632;12.428;2023-07-24T07:34:27;11.85;;;9.57;;
55222;SDS011;41090;48.632;12.428;2023-07-24T07:36:53;11.52;;;10.27;;
55222;SDS011;41090;48.632;12.428;2023-07-24T07:39:18;10.93;;;9.82;;
55222;SDS011;41090;48.632;12.428;2023-07-24T07:41:43;10.73;;;9.63;;
55222;SDS011;41090;48.632;12.428;2023-07-24T07:44:08;15.60;;;10.35;;
55222;SDS011;41090;48.632;12.428;2023-07-24T07:46:34;11.65;;;10.15;;
55222;SDS011;41090;48.632;12.428;2023-07-24T07:48:59;11.25;;;10.00;;
55222;SDS011;41090;48.632;12.428;2023-07-24T07:51:24;10.32;;;8.68;;
55222;SDS011;41090;48.632;12.428;2023-07-24T07:53:51;10.95;;;9.15;;
55222;SDS011;41090;48.632;12.428;2023-07-24T07:56:16;10.05;;;9.05;;
55222;SDS011;41090;48.632;12.428;2023-07-24T07:58:41;11.90;;;9.38;;
55222;SDS011;41090;48.632;12.428;2023-07-24T08:01:06;9.93;;;8.70;;
55222;SDS011;41090;48.632;12.428;2023-07-24T08:03:32;10.27;;;9.10;;
55222;SDS011;41090;48.632;12.428;2023-07-24T08:05:58;10.15;;;9.02;;
55222;SDS011;41090;48.632;12.428;2023-07-24T08:08:23;10.32;;;9.23;;
55222;SDS011;41090;48.632;12.428;2023-07-24T08:10:48;11.25;;;10.15;;
55222;SDS011;41090;48.632;12.428;2023-07-24T08:13:14;13.15;;;9.77;;
55222;SDS011;41090;48.632;12.428;2023-07-24T08:15:39;14.90;;;11.20;;
55222;SDS011;41090;48.632;12.428;2023-07-24T08:18:04;13.27;;;10.77;;
55222;SDS011;41090;48.632;12.428;2023-07-24T08:20:30;14.85;;;10.63;;
55222;SDS011;41090;48.632;12.428;2023-07-24T08:22:55;13.27;;;10.63;;
55222;SDS011;41090;48.632;12.428;2023-07-24T08:25:20;12.57;;;10.32;;
55222;SDS011;41090;48.632;12.428;2023-07-24T08:27:46;13.50;;;10.70;;
55222;SDS011;41090;48.632;12.428;2023-07-24T08:30:11;13.07;;;9.88;;
55222;SDS011;41090;48.632;12.428;2023-07-24T08:32:36;11.90;;;10.45;;
55222;SDS011;41090;48.632;12.428;2023-07-24T08:35:02;12.43;;;10.32;;
55222;SDS011;41090;48.632;12.428;2023-07-24T08:37:27;12.05;;;10.10;;
55222;SDS011;41090;48.632;12.428;2023-07-24T08:39:52;13.60;;;9.95;;
55222;SDS011;41090;48.632;12.428;2023-07-24T08:42:17;10.80;;;9.70;;
55222;SDS011;41090;48.632;12.428;2023-07-24T08:44:43;9.93;;;8.93;;
55222;SDS011;41090;48.632;12.428;2023-07-24T08:47:09;10.95;;;9.27;;
55222;SDS011;41090;48.632;12.428;2023-07-24T08:49:34;13.07;;;9.52;;
55222;SDS011;41090;48.632;12.428;2023-07-24T08:52:01;11.20;;;9.50;;
55222;SDS011;41090;48.632;12.428;2023-07-24T08:54:26;10.85;;;9.68;;
55222;SDS011;41090;48.632;12.428;2023-07-24T08:56:52;12.20;;;9.52;;
55222;SDS011;41090;48.632;12.428;2023-07-24T08:59:17;10.23;;;8.88;;
55222;SDS011;41090;48.632;12.428;2023-07-24T09:01:42;10.88;;;9.77;;
55222;SDS011;41090;48.632;12.428;2023-07-24T09:04:07;10.52;;;9.43;;
55222;SDS011;41090;48.632;12.428;2023-07-24T09:06:33;9.65;;;8.45;;
55222;SDS011;41090;48.632;12.428;2023-07-24T09:08:58;10.70;;;8.88;;
55222;SDS011;41090;48.632;12.428;2023-07-24T09:11:23;13.45;;;9.52;;
55222;SDS011;41090;48.632;12.428;2023-07-24T09:13:49;10.15;;;8.55;;
55222;SDS011;41090;48.632;12.428;2023-07-24T09:16:24;9.02;;;7.55;;
55222;SDS011;41090;48.632;12.428;2023-07-24T09:18:50;10.23;;;8.63;;
55222;SDS011;41090;48.632;12.428;2023-07-24T09:21:31;8.65;;;7.75;;
55222;SDS011;41090;48.632;12.428;2023-07-24T09:23:56;8.20;;;7.40;;
55222;SDS011;41090;48.632;12.428;2023-07-24T09:26:22;9.00;;;8.10;;
55222;SDS011;41090;48.632;12.428;2023-07-24T09:28:54;10.02;;;7.72;;
55222;SDS011;41090;48.632;12.428;2023-07-24T09:31:19;9.55;;;8.18;;
55222;SDS011;41090;48.632;12.428;2023-07-24T09:33:45;11.02;;;7.30;;
55222;SDS011;41090;48.632;12.428;2023-07-24T09:36:11;8.00;;;7.20;;
55222;SDS011;41090;48.632;12.428;2023-07-24T09:38:37;8.07;;;7.28;;
55222;SDS011;41090;48.632;12.428;2023-07-24T09:41:03;9.43;;;7.22;;
55222;SDS011;41090;48.632;12.428;2023-07-24T09:43:29;8.00;;;7.20;;
55222;SDS011;41090;48.632;12.428;2023-07-24T09:45:55;8.13;;;7.32;;
55222;SDS011;41090;48.632;12.428;2023-07-24T09:48:21;7.93;;;7.13;;
55222;SDS011;41090;48.632;12.428;2023-07-24T09:50:48;8.40;;;6.97;;
55222;SDS011;41090;48.632;12.428;2023-07-24T09:53:21;8.15;;;7.18;;
55222;SDS011;41090;48.632;12.428;2023-07-24T09:55:57;8.48;;;7.57;;
55222;SDS011;41090;48.632;12.428;2023-07-24T09:58:23;8.93;;;7.03;;
55222;SDS011;41090;48.632;12.428;2023-07-24T10:00:48;8.00;;;7.20;;
55222;SDS011;41090;48.632;12.428;2023-07-24T10:03:14;7.55;;;6.80;;
55222;SDS011;41090;48.632;12.428;2023-07-24T10:05:40;7.38;;;6.68;;
55222;SDS011;41090;48.632;12.428;2023-07-24T10:08:06;6.25;;;5.65;;
55222;SDS011;41090;48.632;12.428;2023-07-24T10:10:31;7.38;;;5.78;;
55222;SDS011;41090;48.632;12.428;2023-07-24T10:12:57;6.00;;;5.40;;
55222;SDS011;41090;48.632;12.428;2023-07-24T10:15:23;6.20;;;5.10;;
55222;SDS011;41090;48.632;12.428;2023-07-24T10:17:48;5.82;;;5.22;;
55222;SDS011;41090;48.632;12.428;2023-07-24T10:20:15;5.10;;;4.70;;
55222;SDS011;41090;48.632;12.428;2023-07-24T10:22:41;5.78;;;4.85;;
55222;SDS011;41090;48.632;12.428;2023-07-24T10:25:07;4.80;;;4.40;;
55222;SDS011;41090;48.632;12.428;2023-07-24T10:27:35;4.93;;;4.18;;
55222;SDS011;41090;48.632;12.428;2023-07-24T10:30:01;5.03;;;4.50;;
55222;SDS011;41090;48.632;12.428;2023-07-24T10:32:27;4.25;;;3.85;;
55222;SDS011;41090;48.632;12.428;2023-07-24T10:34:57;5.22;;;4.72;;
55222;SDS011;41090;48.632;12.428;2023-07-24T10:37:31;4.85;;;4.40;;
55222;SDS011;41090;48.632;12.428;2023-07-24T10:39:56;5.05;;;4.55;;
55222;SDS011;41090;48.632;12.428;2023-07-24T10:42:22;4.70;;;4.30;;
55222;SDS011;41090;48.632;12.428;2023-07-24T10:44:47;5.75;;;5.22;;
55222;SDS011;41090;48.632;12.428;2023-07-24T10:47:12;4.80;;;4.40;;
55222;SDS011;41090;48.632;12.428;2023-07-24T10:49:38;5.30;;;4.80;;
55222;SDS011;41090;48.632;12.428;2023-07-24T10:52:07;4.88;;;4.38;;
55222;SDS011;41090;48.632;12.428;2023-07-24T10:54:33;5.00;;;4.50;;
55222;SDS011;41090;48.632;12.428;2023-07-24T10:56:59;5.65;;;5.15;;
55222;SDS011;41090;48.632;12.428;2023-07-24T10:59:37;4.80;;;4.30;;
55222;SDS011;41090;48.632;12.428;2023-07-24T11:02:02;5.65;;;5.05;;
55222;SDS011;41090;48.632;12.428;2023-07-24T11:04:29;5.03;;;4.53;;
55222;SDS011;41090;48.632;12.428;2023-07-24T11:06:54;6.18;;;5.10;;
55222;SDS011;41090;48.632;12.428;2023-07-24T11:09:22;5.53;;;5.00;;
55222;SDS011;41090;48.632;12.428;2023-07-24T11:11:47;5.50;;;5.00;;
55222;SDS011;41090;48.632;12.428;2023-07-24T11:14:16;6.13;;;5.53;;
55222;SDS011;41090;48.632;12.428;2023-07-24T11:16:48;5.85;;;5.22;;
55222;SDS011;41090;48.632;12.428;2023-07-24T11:19:13;5.40;;;4.93;;
55222;SDS011;41090;48.632;12.428;2023-07-24T11:21:46;7.10;;;5.30;;
55222;SDS011;41090;48.632;12.428;2023-07-24T11:24:12;6.35;;;5.10;;
55222;SDS011;41090;48.632;12.428;2023-07-24T11:26:37;5.85;;;5.22;;
55222;SDS011;41090;48.632;12.428;2023-07-24T11:29:10;5.65;;;5.15;;
55222;SDS011;41090;48.632;12.428;2023-07-24T11:31:38;5.25;;;4.75;;
55222;SDS011;41090;48.632;12.428;2023-07-24T11:34:04;5.88;;;5.28;;
55222;SDS011;41090;48.632;12.428;2023-07-24T11:36:30;5.57;;;5.03;;
55222;SDS011;41090;48.632;12.428;2023-07-24T11:38:55;5.80;;;5.07;;
55222;SDS011;41090;48.632;12.428;2023-07-24T11:41:20;5.38;;;4.88;;
55222;SDS011;41090;48.632;12.428;2023-07-24T11:43:46;5.45;;;4.95;;
55222;SDS011;41090;48.632;12.428;2023-07-24T11:46:21;5.80;;;5.20;;
55222;SDS011;41090;48.632;12.428;2023-07-24T11:48:47;6.88;;;4.82;;
55222;SDS011;41090;48.632;12.428;2023-07-24T11:51:12;5.20;;;4.70;;
55222;SDS011;41090;48.632;12.428;2023-07-24T11:53:37;5.07;;;4.57;;
55222;SDS011;41090;48.632;12.428;2023-07-24T11:56:12;5.65;;;5.00;;
55222;SDS011;41090;48.632;12.428;2023-07-24T11:58:37;5.30;;;4.80;;
55222;SDS011;41090;48.632;12.428;2023-07-24T12:01:02;5.53;;;5.03;;
55222;SDS011;41090;48.632;12.428;2023-07-24T12:03:28;5.40;;;4.90;;
55222;SDS011;41090;48.632;12.428;2023-07-24T12:05:53;5.22;;;4.72;;
55222;SDS011;41090;48.632;12.428;2023-07-24T12:08:32;5.00;;;4.60;;
55222;SDS011;41090;48.632;12.428;2023-07-24T12:10:58;6.45;;;5.00;;
55222;SDS011;41090;48.632;12.428;2023-07-24T12:13:23;5.38;;;4.88;;
55222;SDS011;41090;48.632;12.428;2023-07-24T12:15:49;5.15;;;4.75;;
55222;SDS011;41090;48.632;12.428;2023-07-24T12:18:14;4.90;;;4.50;;
55222;SDS011;41090;48.632;12.428;2023-07-24T12:20:39;5.13;;;4.63;;
55222;SDS011;41090;48.632;12.428;2023-07-24T12:23:05;4.60;;;4.20;;
55222;SDS011;41090;48.632;12.428;2023-07-24T12:25:30;4.38;;;3.97;;
55222;SDS011;41090;48.632;12.428;2023-07-24T12:27:55;4.70;;;4.20;;
55222;SDS011;41090;48.632;12.428;2023-07-24T12:30:20;5.00;;;3.85;;
55222;SDS011;41090;48.632;12.428;2023-07-24T12:32:46;4.10;;;3.70;;
55222;SDS011;41090;48.632;12.428;2023-07-24T12:35:11;4.18;;;3.75;;
55222;SDS011;41090;48.632;12.428;2023-07-24T12:37:36;4.00;;;3.63;;
55222;SDS011;41090;48.632;12.428;2023-07-24T12:40:04;4.05;;;3.75;;
55222;SDS011;41090;48.632;12.428;2023-07-24T12:42:29;4.30;;;3.90;;
55222;SDS011;41090;48.632;12.428;2023-07-24T12:44:54;3.67;;;3.38;;
55222;SDS011;41090;48.632;12.428;2023-07-24T12:47:20;4.30;;;3.78;;
55222;SDS011;41090;48.632;12.428;2023-07-24T12:49:45;4.45;;;4.00;;
55222;SDS011;41090;48.632;12.428;2023-07-24T12:52:10;4.35;;;3.95;;
55222;SDS011;41090;48.632;12.428;2023-07-24T12:54:36;5.78;;;4.03;;
55222;SDS011;41090;48.632;12.428;2023-07-24T12:57:01;4.45;;;4.05;;
55222;SDS011;41090;48.632;12.428;2023-07-24T12:59:27;4.65;;;4.22;;
55222;SDS011;41090;48.632;12.428;2023-07-24T13:01:52;6.15;;;4.38;;
55222;SDS011;41090;48.632;12.428;2023-07-24T13:04:18;4.78;;;4.28;;
55222;SDS011;41090;48.632;12.428;2023-07-24T13:06:44;6.60;;;5.30;;
55222;SDS011;41090;48.632;12.428;2023-07-24T13:09:09;6.07;;;5.40;;
55222;SDS011;41090;48.632;12.428;2023-07-24T13:11:34;6.80;;;5.20;;
55222;SDS011;41090;48.632;12.428;2023-07-24T13:14:00;7.13;;;6.00;;
55222;SDS011;41090;48.632;12.428;2023-07-24T13:16:25;10.70;;;6.80;;
55222;SDS011;41090;48.632;12.428;2023-07-24T13:18:51;11.40;;;6.85;;
55222;SDS011;41090;48.632;12.428;2023-07-24T13:21:17;11.82;;;7.50;;
55222;SDS011;41090;48.632;12.428;2023-07-24T13:23:42;10.40;;;7.00;;
55222;SDS011;41090;48.632;12.428;2023-07-24T13:26:07;8.35;;;6.82;;
55222;SDS011;41090;48.632;12.428;2023-07-24T13:28:33;9.82;;;6.90;;
55222;SDS011;41090;48.632;12.428;2023-07-24T13:30:58;8.10;;;6.93;;
55222;SDS011;41090;48.632;12.428;2023-07-24T13:33:24;6.90;;;6.22;;
55222;SDS011;41090;48.632;12.428;2023-07-24T13:35:49;9.68;;;7.40;;
55222;SDS011;41090;48.632;12.428;2023-07-24T13:38:15;6.72;;;6.10;;
55222;SDS011;41090;48.632;12.428;2023-07-24T13:40:41;7.65;;;6.38;;
55222;SDS011;41090;48.632;12.428;2023-07-24T13:43:06;8.20;;;6.47;;
55222;SDS011;41090;48.632;12.428;2023-07-24T13:45:31;7.30;;;6.30;;
55222;SDS011;41090;48.632;12.428;2023-07-24T13:47:57;7.47;;;6.45;;
55222;SDS011;41090;48.632;12.428;2023-07-24T13:50:22;7.90;;;6.72;;
55222;SDS011;41090;48.632;12.428;2023-07-24T13:52:47;10.05;;;6.63;;
55222;SDS011;41090;48.632;12.428;2023-07-24T13:55:13;6.82;;;5.95;;
55222;SDS011;41090;48.632;12.428;2023-07-24T13:57:39;8.55;;;6.18;;
55222;SDS011;41090;48.632;12.428;2023-07-24T14:00:04;6.75;;;6.05;;
55222;SDS011;41090;48.632;12.428;2023-07-24T14:02:30;6.63;;;5.95;;
55222;SDS011;41090;48.632;12.428;2023-07-24T14:04:55;6.50;;;5.80;;
55222;SDS011;41090;48.632;12.428;2023-07-24T14:07:20;6.80;;;6.10;;
55222;SDS011;41090;48.632;12.428;2023-07-24T14:09:46;8.93;;;6.50;;
55222;SDS011;41090;48.632;12.428;2023-07-24T14:12:11;6.68;;;5.88;;
55222;SDS011;41090;48.632;12.428;2023-07-24T14:14:36;6.65;;;5.55;;
55222;SDS011;41090;48.632;12.428;2023-07-24T14:17:02;5.72;;;5.20;;